sensor_id;sensor_type;location;lat;lon;timestamp;temperature;humidity
2639;DHT22;1329;51.384;7.122;2023-09-19T00:00:31;18.70;1.00
2639;DHT22;1329;51.384;7.122;2023-09-19T00:02:59;18.70;1.00
2639;DHT22;1329;51.384;7.122;2023-09-19T00:05:29;18.70;1.00
2639;DHT22;1329;51.384;7.122;2023-09-19T00:08:01;18.70;1.00
2639;DHT22;1329;51.384;7.122;2023-09-19T00:10:30;18.60;1.00
2639;DHT22;1329;51.384;7.122;2023-09-19T00:13:00;18.60;1.00
2639;DHT22;1329;51.384;7.122;2023-09-19T00:15:36;18.60;1.00
2639;DHT22;1329;51.384;7.122;2023-09-19T00:18:04;18.60;1.00
2639;DHT22;1329;51.384;7.122;2023-09-19T00:20:35;18.60;1.00
2639;DHT22;1329;51.384;7.122;2023-09-19T00:23:04;18.60;1.00
2639;DHT22;1329;51.384;7.122;2023-09-19T00:25:34;18.50;1.00
2639;DHT22;1329;51.384;7.122;2023-09-19T00:28:03;18.50;1.00
2639;DHT22;1329;51.384;7.122;2023-09-19T00:30:31;18.50;1.00
2639;DHT22;1329;51.384;7.122;2023-09-19T00:32:58;18.40;1.00
2639;DHT22;1329;51.384;7.122;2023-09-19T00:35:26;18.40;1.00
2639;DHT22;1329;51.384;7.122;2023-09-19T00:37:55;18.40;1.00
2639;DHT22;1329;51.384;7.122;2023-09-19T00:40:22;18.40;1.00
2639;DHT22;1329;51.384;7.122;2023-09-19T00:42:51;18.40;1.00
2639;DHT22;1329;51.384;7.122;2023-09-19T00:45:18;18.30;1.00
2639;DHT22;1329;51.384;7.122;2023-09-19T00:47:48;18.30;1.00
2639;DHT22;1329;51.384;7.122;2023-09-19T00:50:17;18.30;1.00
2639;DHT22;1329;51.384;7.122;2023-09-19T00:52:46;18.30;1.00
2639;DHT22;1329;51.384;7.122;2023-09-19T00:55:17;18.30;1.00
2639;DHT22;1329;51.384;7.122;2023-09-19T00:57:45;18.20;1.00
2639;DHT22;1329;51.384;7.122;2023-09-19T01:00:13;18.20;1.00
2639;DHT22;1329;51.384;7.122;2023-09-19T01:02:42;18.20;1.00
2639;DHT22;1329;51.384;7.122;2023-09-19T01:05:10;18.20;1.00
2639;DHT22;1329;51.384;7.122;2023-09-19T01:07:38;18.20;1.00
2639;DHT22;1329;51.384;7.122;2023-09-19T01:10:07;18.20;1.00
2639;DHT22;1329;51.384;7.122;2023-09-19T01:12:46;18.10;1.00
2639;DHT22;1329;51.384;7.122;2023-09-19T01:15:22;18.10;1.00
2639;DHT22;1329;51.384;7.122;2023-09-19T01:18:00;18.10;1.00
2639;DHT22;1329;51.384;7.122;2023-09-19T01:20:39;18.10;1.00
2639;DHT22;1329;51.384;7.122;2023-09-19T01:23:16;18.10;1.00
2639;DHT22;1329;51.384;7.122;2023-09-19T01:26:18;18.10;1.00
2639;DHT22;1329;51.384;7.122;2023-09-19T01:29:06;18.10;1.00
2639;DHT22;1329;51.384;7.122;2023-09-19T01:31:47;18.10;1.00
2639;DHT22;1329;51.384;7.122;2023-09-19T01:34:15;18.00;1.00
2639;DHT22;1329;51.384;7.122;2023-09-19T01:36:43;18.00;1.00
2639;DHT22;1329;51.384;7.122;2023-09-19T01:39:12;18.00;1.00
2639;DHT22;1329;51.384;7.122;2023-09-19T01:41:58;18.00;1.00
2639;DHT22;1329;51.384;7.122;2023-09-19T01:44:36;18.00;1.00
2639;DHT22;1329;51.384;7.122;2023-09-19T01:47:18;17.90;1.00
2639;DHT22;1329;51.384;7.122;2023-09-19T01:49:55;18.00;1.00
2639;DHT22;1329;51.384;7.122;2023-09-19T01:52:31;17.90;1.00
2639;DHT22;1329;51.384;7.122;2023-09-19T01:55:07;17.90;1.00
2639;DHT22;1329;51.384;7.122;2023-09-19T01:57:42;17.90;1.00
2639;DHT22;1329;51.384;7.122;2023-09-19T02:00:17;17.90;1.00
2639;DHT22;1329;51.384;7.122;2023-09-19T02:02:47;17.90;1.00
2639;DHT22;1329;51.384;7.122;2023-09-19T02:05:22;17.90;1.00
2639;DHT22;1329;51.384;7.122;2023-09-19T02:10:18;17.80;1.00
2639;DHT22;1329;51.384;7.122;2023-09-19T02:12:45;17.80;1.00
2639;DHT22;1329;51.384;7.122;2023-09-19T02:15:12;17.80;1.00
2639;DHT22;1329;51.384;7.122;2023-09-19T02:17:41;17.80;1.00
2639;DHT22;1329;51.384;7.122;2023-09-19T02:20:12;17.80;1.00
2639;DHT22;1329;51.384;7.122;2023-09-19T02:22:39;17.80;1.00
2639;DHT22;1329;51.384;7.122;2023-09-19T02:25:06;17.80;1.00
2639;DHT22;1329;51.384;7.122;2023-09-19T02:27:34;17.70;1.00
2639;DHT22;1329;51.384;7.122;2023-09-19T02:30:01;17.70;1.00
2639;DHT22;1329;51.384;7.122;2023-09-19T02:32:30;17.70;1.00
2639;DHT22;1329;51.384;7.122;2023-09-19T02:34:57;17.70;1.00
2639;DHT22;1329;51.384;7.122;2023-09-19T02:37:26;17.70;1.00
2639;DHT22;1329;51.384;7.122;2023-09-19T02:39:53;17.70;1.00
2639;DHT22;1329;51.384;7.122;2023-09-19T02:42:20;17.70;1.00
2639;DHT22;1329;51.384;7.122;2023-09-19T02:44:47;17.70;1.00
2639;DHT22;1329;51.384;7.122;2023-09-19T02:47:14;17.70;1.00
2639;DHT22;1329;51.384;7.122;2023-09-19T02:49:42;17.70;1.00
2639;DHT22;1329;51.384;7.122;2023-09-19T02:52:09;17.70;1.00
2639;DHT22;1329;51.384;7.122;2023-09-19T02:54:38;17.70;1.00
2639;DHT22;1329;51.384;7.122;2023-09-19T02:57:05;17.70;1.00
2639;DHT22;1329;51.384;7.122;2023-09-19T02:59:33;17.60;1.00
2639;DHT22;1329;51.384;7.122;2023-09-19T03:02:03;17.60;1.00
2639;DHT22;1329;51.384;7.122;2023-09-19T03:04:30;17.60;1.00
2639;DHT22;1329;51.384;7.122;2023-09-19T03:06:58;17.60;1.00
2639;DHT22;1329;51.384;7.122;2023-09-19T03:09:26;17.50;1.00
2639;DHT22;1329;51.384;7.122;2023-09-19T03:11:55;17.50;1.00
2639;DHT22;1329;51.384;7.122;2023-09-19T03:14:22;17.50;1.00
2639;DHT22;1329;51.384;7.122;2023-09-19T03:16:49;17.50;1.00
2639;DHT22;1329;51.384;7.122;2023-09-19T03:19:17;17.50;1.00
2639;DHT22;1329;51.384;7.122;2023-09-19T03:21:46;17.50;1.00
2639;DHT22;1329;51.384;7.122;2023-09-19T03:24:16;17.50;1.00
2639;DHT22;1329;51.384;7.122;2023-09-19T03:26:43;17.40;1.00
2639;DHT22;1329;51.384;7.122;2023-09-19T03:29:12;17.40;1.00
2639;DHT22;1329;51.384;7.122;2023-09-19T03:31:39;17.40;1.00
2639;DHT22;1329;51.384;7.122;2023-09-19T03:34:06;17.40;1.00
2639;DHT22;1329;51.384;7.122;2023-09-19T03:36:34;17.40;1.00
2639;DHT22;1329;51.384;7.122;2023-09-19T03:39:02;17.40;1.00
2639;DHT22;1329;51.384;7.122;2023-09-19T03:41:30;17.40;1.00
2639;DHT22;1329;51.384;7.122;2023-09-19T03:43:58;17.40;1.00
2639;DHT22;1329;51.384;7.122;2023-09-19T03:46:27;17.40;1.00
2639;DHT22;1329;51.384;7.122;2023-09-19T03:48:54;17.40;1.00
2639;DHT22;1329;51.384;7.122;2023-09-19T03:51:21;17.30;1.00
2639;DHT22;1329;51.384;7.122;2023-09-19T03:53:48;17.40;1.00
2639;DHT22;1329;51.384;7.122;2023-09-19T03:56:16;17.40;1.00
2639;DHT22;1329;51.384;7.122;2023-09-19T03:58:43;17.30;1.00
2639;DHT22;1329;51.384;7.122;2023-09-19T04:01:10;17.30;1.00
2639;DHT22;1329;51.384;7.122;2023-09-19T04:03:40;17.30;1.00
2639;DHT22;1329;51.384;7.122;2023-09-19T04:06:13;17.30;1.00
2639;DHT22;1329;51.384;7.122;2023-09-19T04:08:40;17.30;1.00
2639;DHT22;1329;51.384;7.122;2023-09-19T04:11:07;17.30;1.00
2639;DHT22;1329;51.384;7.122;2023-09-19T04:13:34;17.30;1.00
2639;DHT22;1329;51.384;7.122;2023-09-19T04:16:01;17.30;1.00
2639;DHT22;1329;51.384;7.122;2023-09-19T04:18:29;17.30;1.00
2639;DHT22;1329;51.384;7.122;2023-09-19T04:21:00;17.30;1.00
2639;DHT22;1329;51.384;7.122;2023-09-19T04:23:29;17.20;1.00
2639;DHT22;1329;51.384;7.122;2023-09-19T04:25:56;17.30;1.00
2639;DHT22;1329;51.384;7.122;2023-09-19T04:28:23;17.20;1.00
2639;DHT22;1329;51.384;7.122;2023-09-19T04:30:53;17.20;1.00
2639;DHT22;1329;51.384;7.122;2023-09-19T04:33:20;17.20;1.00
2639;DHT22;1329;51.384;7.122;2023-09-19T04:35:49;17.20;1.00
2639;DHT22;1329;51.384;7.122;2023-09-19T04:38:17;17.20;1.00
2639;DHT22;1329;51.384;7.122;2023-09-19T04:40:44;17.20;1.00
2639;DHT22;1329;51.384;7.122;2023-09-19T04:43:11;17.20;1.00
2639;DHT22;1329;51.384;7.122;2023-09-19T04:45:39;17.20;1.00
2639;DHT22;1329;51.384;7.122;2023-09-19T04:48:06;17.20;1.00
2639;DHT22;1329;51.384;7.122;2023-09-19T04:50:34;17.20;1.00
2639;DHT22;1329;51.384;7.122;2023-09-19T04:53:02;17.20;1.00
2639;DHT22;1329;51.384;7.122;2023-09-19T04:55:31;17.10;1.00
2639;DHT22;1329;51.384;7.122;2023-09-19T04:57:58;17.10;1.00
2639;DHT22;1329;51.384;7.122;2023-09-19T05:00:25;17.20;1.00
2639;DHT22;1329;51.384;7.122;2023-09-19T05:02:57;17.10;1.00
2639;DHT22;1329;51.384;7.122;2023-09-19T05:05:24;17.10;1.00
2639;DHT22;1329;51.384;7.122;2023-09-19T05:07:51;17.10;1.00
2639;DHT22;1329;51.384;7.122;2023-09-19T05:10:19;17.10;1.00
2639;DHT22;1329;51.384;7.122;2023-09-19T05:12:48;17.10;1.00
2639;DHT22;1329;51.384;7.122;2023-09-19T05:15:17;17.10;1.00
2639;DHT22;1329;51.384;7.122;2023-09-19T05:17:48;17.10;1.00
2639;DHT22;1329;51.384;7.122;2023-09-19T05:20:17;17.10;1.00
2639;DHT22;1329;51.384;7.122;2023-09-19T05:22:50;17.10;1.00
2639;DHT22;1329;51.384;7.122;2023-09-19T05:25:25;17.10;1.00
2639;DHT22;1329;51.384;7.122;2023-09-19T05:27:57;17.10;1.00
2639;DHT22;1329;51.384;7.122;2023-09-19T05:30:24;17.10;1.00
2639;DHT22;1329;51.384;7.122;2023-09-19T05:32:53;17.10;1.00
2639;DHT22;1329;51.384;7.122;2023-09-19T05:35:21;17.10;1.00
2639;DHT22;1329;51.384;7.122;2023-09-19T05:37:48;17.00;1.00
2639;DHT22;1329;51.384;7.122;2023-09-19T05:40:16;17.10;1.00
2639;DHT22;1329;51.384;7.122;2023-09-19T05:42:43;17.10;1.00
2639;DHT22;1329;51.384;7.122;2023-09-19T05:45:13;17.10;1.00
2639;DHT22;1329;51.384;7.122;2023-09-19T05:47:44;17.10;1.00
2639;DHT22;1329;51.384;7.122;2023-09-19T05:50:12;17.10;1.00
2639;DHT22;1329;51.384;7.122;2023-09-19T05:52:40;17.10;1.00
2639;DHT22;1329;51.384;7.122;2023-09-19T05:55:09;17.10;1.00
2639;DHT22;1329;51.384;7.122;2023-09-19T05:57:36;17.20;1.00
2639;DHT22;1329;51.384;7.122;2023-09-19T06:00:05;17.20;1.00
2639;DHT22;1329;51.384;7.122;2023-09-19T06:02:36;17.20;1.00
2639;DHT22;1329;51.384;7.122;2023-09-19T06:05:04;17.20;1.00
2639;DHT22;1329;51.384;7.122;2023-09-19T06:07:36;17.20;1.00
2639;DHT22;1329;51.384;7.122;2023-09-19T06:10:05;17.30;1.00
2639;DHT22;1329;51.384;7.122;2023-09-19T06:12:37;17.30;1.00
2639;DHT22;1329;51.384;7.122;2023-09-19T06:15:06;17.40;1.00
2639;DHT22;1329;51.384;7.122;2023-09-19T06:17:35;17.40;1.00
2639;DHT22;1329;51.384;7.122;2023-09-19T06:20:05;17.40;1.00
2639;DHT22;1329;51.384;7.122;2023-09-19T06:22:38;17.50;1.00
2639;DHT22;1329;51.384;7.122;2023-09-19T06:25:07;17.50;1.00
2639;DHT22;1329;51.384;7.122;2023-09-19T06:27:37;17.50;1.00
2639;DHT22;1329;51.384;7.122;2023-09-19T06:30:06;17.50;1.00
2639;DHT22;1329;51.384;7.122;2023-09-19T06:32:36;17.50;1.00
2639;DHT22;1329;51.384;7.122;2023-09-19T06:35:03;17.50;1.00
2639;DHT22;1329;51.384;7.122;2023-09-19T06:37:36;17.60;1.00
2639;DHT22;1329;51.384;7.122;2023-09-19T06:40:05;17.60;1.00
2639;DHT22;1329;51.384;7.122;2023-09-19T06:42:40;17.60;1.00
2639;DHT22;1329;51.384;7.122;2023-09-19T06:45:08;17.60;1.00
2639;DHT22;1329;51.384;7.122;2023-09-19T06:47:40;17.60;1.00
2639;DHT22;1329;51.384;7.122;2023-09-19T06:50:09;17.60;1.00
2639;DHT22;1329;51.384;7.122;2023-09-19T06:52:39;17.60;1.00
2639;DHT22;1329;51.384;7.122;2023-09-19T06:55:06;17.60;1.00
2639;DHT22;1329;51.384;7.122;2023-09-19T06:57:35;17.60;1.00
2639;DHT22;1329;51.384;7.122;2023-09-19T07:00:04;17.70;1.00
2639;DHT22;1329;51.384;7.122;2023-09-19T07:02:42;17.70;1.00
2639;DHT22;1329;51.384;7.122;2023-09-19T07:05:10;17.70;1.00
2639;DHT22;1329;51.384;7.122;2023-09-19T07:07:38;17.70;1.00
2639;DHT22;1329;51.384;7.122;2023-09-19T07:10:06;17.70;1.00
2639;DHT22;1329;51.384;7.122;2023-09-19T07:12:36;17.80;1.00
2639;DHT22;1329;51.384;7.122;2023-09-19T07:15:04;17.80;1.00
2639;DHT22;1329;51.384;7.122;2023-09-19T07:17:33;17.80;1.00
2639;DHT22;1329;51.384;7.122;2023-09-19T07:20:03;17.80;1.00
2639;DHT22;1329;51.384;7.122;2023-09-19T07:22:34;17.90;1.00
2639;DHT22;1329;51.384;7.122;2023-09-19T07:25:01;17.90;1.00
2639;DHT22;1329;51.384;7.122;2023-09-19T07:27:29;17.90;1.00
2639;DHT22;1329;51.384;7.122;2023-09-19T07:29:56;17.90;1.00
2639;DHT22;1329;51.384;7.122;2023-09-19T07:32:24;17.90;1.00
2639;DHT22;1329;51.384;7.122;2023-09-19T07:34:53;17.90;1.00
2639;DHT22;1329;51.384;7.122;2023-09-19T07:37:22;17.90;1.00
2639;DHT22;1329;51.384;7.122;2023-09-19T07:39:51;18.00;1.00
2639;DHT22;1329;51.384;7.122;2023-09-19T07:42:18;18.00;1.00
2639;DHT22;1329;51.384;7.122;2023-09-19T07:44:45;18.10;1.00
2639;DHT22;1329;51.384;7.122;2023-09-19T07:47:15;18.10;1.00
2639;DHT22;1329;51.384;7.122;2023-09-19T07:49:42;18.10;1.00
2639;DHT22;1329;51.384;7.122;2023-09-19T07:52:13;18.20;1.00
2639;DHT22;1329;51.384;7.122;2023-09-19T07:54:42;18.20;1.00
2639;DHT22;1329;51.384;7.122;2023-09-19T07:57:10;18.20;1.00
2639;DHT22;1329;51.384;7.122;2023-09-19T07:59:37;18.20;1.00
2639;DHT22;1329;51.384;7.122;2023-09-19T08:02:07;18.30;1.00
2639;DHT22;1329;51.384;7.122;2023-09-19T08:04:41;18.30;1.00
2639;DHT22;1329;51.384;7.122;2023-09-19T08:07:09;18.20;1.00
2639;DHT22;1329;51.384;7.122;2023-09-19T08:09:36;18.30;1.00
2639;DHT22;1329;51.384;7.122;2023-09-19T08:12:06;18.20;1.00
2639;DHT22;1329;51.384;7.122;2023-09-19T08:14:36;18.30;1.00
2639;DHT22;1329;51.384;7.122;2023-09-19T08:17:03;18.30;1.00
2639;DHT22;1329;51.384;7.122;2023-09-19T08:19:33;18.30;1.00
2639;DHT22;1329;51.384;7.122;2023-09-19T08:22:02;18.40;1.00
2639;DHT22;1329;51.384;7.122;2023-09-19T08:24:30;18.30;1.00
2639;DHT22;1329;51.384;7.122;2023-09-19T08:26:58;18.40;1.00
2639;DHT22;1329;51.384;7.122;2023-09-19T08:29:28;18.40;1.00
2639;DHT22;1329;51.384;7.122;2023-09-19T08:31:55;18.40;1.00
2639;DHT22;1329;51.384;7.122;2023-09-19T08:34:23;18.50;1.00
2639;DHT22;1329;51.384;7.122;2023-09-19T08:36:51;18.50;1.00
2639;DHT22;1329;51.384;7.122;2023-09-19T08:39:22;18.60;1.00
2639;DHT22;1329;51.384;7.122;2023-09-19T08:41:49;18.60;1.00
2639;DHT22;1329;51.384;7.122;2023-09-19T08:44:16;18.60;1.00
2639;DHT22;1329;51.384;7.122;2023-09-19T08:46:47;18.60;1.00
2639;DHT22;1329;51.384;7.122;2023-09-19T08:49:23;18.70;1.00
2639;DHT22;1329;51.384;7.122;2023-09-19T08:52:01;18.60;1.00
2639;DHT22;1329;51.384;7.122;2023-09-19T08:54:35;18.70;1.00
2639;DHT22;1329;51.384;7.122;2023-09-19T08:57:07;18.70;1.00
2639;DHT22;1329;51.384;7.122;2023-09-19T08:59:37;18.80;1.00
2639;DHT22;1329;51.384;7.122;2023-09-19T09:02:11;18.80;1.00
2639;DHT22;1329;51.384;7.122;2023-09-19T09:04:39;18.90;1.00
2639;DHT22;1329;51.384;7.122;2023-09-19T09:07:10;18.90;1.00
2639;DHT22;1329;51.384;7.122;2023-09-19T09:09:41;19.00;1.00
2639;DHT22;1329;51.384;7.122;2023-09-19T09:12:12;19.00;1.00
2639;DHT22;1329;51.384;7.122;2023-09-19T09:14:39;19.00;1.00
2639;DHT22;1329;51.384;7.122;2023-09-19T09:17:07;19.00;1.00
2639;DHT22;1329;51.384;7.122;2023-09-19T09:19:35;19.00;1.00
2639;DHT22;1329;51.384;7.122;2023-09-19T09:22:07;19.10;1.00
2639;DHT22;1329;51.384;7.122;2023-09-19T09:24:34;19.10;1.00
2639;DHT22;1329;51.384;7.122;2023-09-19T09:27:04;19.10;1.00
2639;DHT22;1329;51.384;7.122;2023-09-19T09:29:44;19.20;1.00
2639;DHT22;1329;51.384;7.122;2023-09-19T09:32:19;19.20;1.00
2639;DHT22;1329;51.384;7.122;2023-09-19T09:34:50;19.30;1.00
2639;DHT22;1329;51.384;7.122;2023-09-19T09:37:19;19.30;1.00
2639;DHT22;1329;51.384;7.122;2023-09-19T09:39:51;19.30;1.00
2639;DHT22;1329;51.384;7.122;2023-09-19T09:42:32;19.40;1.00
2639;DHT22;1329;51.384;7.122;2023-09-19T09:45:13;19.40;1.00
2639;DHT22;1329;51.384;7.122;2023-09-19T09:47:43;19.40;1.00
2639;DHT22;1329;51.384;7.122;2023-09-19T09:50:28;19.50;1.00
2639;DHT22;1329;51.384;7.122;2023-09-19T09:53:14;19.50;1.00
2639;DHT22;1329;51.384;7.122;2023-09-19T09:56:01;19.50;1.00
2639;DHT22;1329;51.384;7.122;2023-09-19T09:58:32;19.50;1.00
2639;DHT22;1329;51.384;7.122;2023-09-19T10:01:01;19.60;1.00
2639;DHT22;1329;51.384;7.122;2023-09-19T10:03:35;19.50;1.00
2639;DHT22;1329;51.384;7.122;2023-09-19T10:06:11;19.60;1.00
2639;DHT22;1329;51.384;7.122;2023-09-19T10:09:03;19.70;1.00
2639;DHT22;1329;51.384;7.122;2023-09-19T10:11:46;19.70;1.00
2639;DHT22;1329;51.384;7.122;2023-09-19T10:14:27;19.80;1.00
2639;DHT22;1329;51.384;7.122;2023-09-19T10:16:59;19.80;1.00
2639;DHT22;1329;51.384;7.122;2023-09-19T10:19:31;19.90;1.00
2639;DHT22;1329;51.384;7.122;2023-09-19T10:22:05;19.90;1.00
2639;DHT22;1329;51.384;7.122;2023-09-19T10:24:35;19.90;1.00
2639;DHT22;1329;51.384;7.122;2023-09-19T10:27:05;19.90;1.00
2639;DHT22;1329;51.384;7.122;2023-09-19T10:29:35;19.90;1.00
2639;DHT22;1329;51.384;7.122;2023-09-19T10:32:06;19.80;1.00
2639;DHT22;1329;51.384;7.122;2023-09-19T10:34:36;19.80;1.00
2639;DHT22;1329;51.384;7.122;2023-09-19T10:37:05;19.80;1.00
2639;DHT22;1329;51.384;7.122;2023-09-19T10:39:35;19.80;1.00
2639;DHT22;1329;51.384;7.122;2023-09-19T10:42:06;19.90;1.00
2639;DHT22;1329;51.384;7.122;2023-09-19T10:44:37;19.90;1.00
2639;DHT22;1329;51.384;7.122;2023-09-19T10:47:08;20.00;1.00
2639;DHT22;1329;51.384;7.122;2023-09-19T10:49:35;20.10;1.00
2639;DHT22;1329;51.384;7.122;2023-09-19T10:52:07;20.10;1.00
2639;DHT22;1329;51.384;7.122;2023-09-19T10:54:39;20.20;1.00
2639;DHT22;1329;51.384;7.122;2023-09-19T10:57:13;20.30;1.00
2639;DHT22;1329;51.384;7.122;2023-09-19T11:00:02;20.30;1.00
2639;DHT22;1329;51.384;7.122;2023-09-19T11:03:16;20.40;1.00
2639;DHT22;1329;51.384;7.122;2023-09-19T11:06:04;20.50;1.00
2639;DHT22;1329;51.384;7.122;2023-09-19T11:08:56;20.50;1.00
2639;DHT22;1329;51.384;7.122;2023-09-19T11:11:46;20.50;1.00
2639;DHT22;1329;51.384;7.122;2023-09-19T11:14:37;20.50;1.00
2639;DHT22;1329;51.384;7.122;2023-09-19T11:17:30;20.50;1.00
2639;DHT22;1329;51.384;7.122;2023-09-19T11:20:20;20.60;1.00
2639;DHT22;1329;51.384;7.122;2023-09-19T11:25:58;20.60;1.00
2639;DHT22;1329;51.384;7.122;2023-09-19T11:28:29;20.60;1.00
2639;DHT22;1329;51.384;7.122;2023-09-19T11:34:37;20.60;1.00
2639;DHT22;1329;51.384;7.122;2023-09-19T11:40:44;20.60;1.00
2639;DHT22;1329;51.384;7.122;2023-09-19T11:43:31;20.60;1.00
2639;DHT22;1329;51.384;7.122;2023-09-19T11:46:04;20.70;1.00
2639;DHT22;1329;51.384;7.122;2023-09-19T11:48:35;20.70;1.00
2639;DHT22;1329;51.384;7.122;2023-09-19T11:51:11;20.70;1.00
2639;DHT22;1329;51.384;7.122;2023-09-19T11:53:45;20.70;1.00
2639;DHT22;1329;51.384;7.122;2023-09-19T11:56:17;20.70;1.00
2639;DHT22;1329;51.384;7.122;2023-09-19T11:58:49;20.70;1.00
2639;DHT22;1329;51.384;7.122;2023-09-19T12:01:22;20.80;1.00
2639;DHT22;1329;51.384;7.122;2023-09-19T12:03:54;20.80;1.00
2639;DHT22;1329;51.384;7.122;2023-09-19T12:06:24;20.80;1.00
2639;DHT22;1329;51.384;7.122;2023-09-19T12:08:51;20.90;1.00
2639;DHT22;1329;51.384;7.122;2023-09-19T12:11:22;20.90;1.00
2639;DHT22;1329;51.384;7.122;2023-09-19T12:13:51;20.90;1.00
2639;DHT22;1329;51.384;7.122;2023-09-19T12:16:19;21.00;1.00
2639;DHT22;1329;51.384;7.122;2023-09-19T12:18:49;21.00;1.00
2639;DHT22;1329;51.384;7.122;2023-09-19T12:21:27;21.00;1.00
2639;DHT22;1329;51.384;7.122;2023-09-19T12:24:07;21.10;1.00
2639;DHT22;1329;51.384;7.122;2023-09-19T12:26:43;21.10;1.00
2639;DHT22;1329;51.384;7.122;2023-09-19T12:29:23;21.10;1.00
2639;DHT22;1329;51.384;7.122;2023-09-19T12:31:54;21.20;1.00
2639;DHT22;1329;51.384;7.122;2023-09-19T12:34:24;21.20;1.00
2639;DHT22;1329;51.384;7.122;2023-09-19T12:37:07;21.20;1.00
2639;DHT22;1329;51.384;7.122;2023-09-19T12:39:43;21.30;1.00
2639;DHT22;1329;51.384;7.122;2023-09-19T12:42:17;21.30;1.00
2639;DHT22;1329;51.384;7.122;2023-09-19T12:44:48;21.30;1.00
2639;DHT22;1329;51.384;7.122;2023-09-19T12:47:21;21.30;1.00
2639;DHT22;1329;51.384;7.122;2023-09-19T12:50:08;21.40;1.00
2639;DHT22;1329;51.384;7.122;2023-09-19T12:52:45;21.40;1.00
2639;DHT22;1329;51.384;7.122;2023-09-19T12:55:24;21.40;1.00
2639;DHT22;1329;51.384;7.122;2023-09-19T12:58:07;21.50;1.00
2639;DHT22;1329;51.384;7.122;2023-09-19T13:00:38;21.60;1.00
2639;DHT22;1329;51.384;7.122;2023-09-19T13:03:14;21.60;1.00
2639;DHT22;1329;51.384;7.122;2023-09-19T13:05:51;21.70;1.00
2639;DHT22;1329;51.384;7.122;2023-09-19T13:08:23;21.80;1.00
2639;DHT22;1329;51.384;7.122;2023-09-19T13:11:08;21.90;1.00
2639;DHT22;1329;51.384;7.122;2023-09-19T13:13:41;22.00;1.00
2639;DHT22;1329;51.384;7.122;2023-09-19T13:16:11;22.00;1.00
2639;DHT22;1329;51.384;7.122;2023-09-19T13:18:46;22.10;1.00
2639;DHT22;1329;51.384;7.122;2023-09-19T13:21:16;22.20;1.00
2639;DHT22;1329;51.384;7.122;2023-09-19T13:23:51;22.20;1.00
2639;DHT22;1329;51.384;7.122;2023-09-19T13:26:20;22.30;1.00
2639;DHT22;1329;51.384;7.122;2023-09-19T13:28:48;22.30;1.00
2639;DHT22;1329;51.384;7.122;2023-09-19T13:31:17;22.30;1.00
2639;DHT22;1329;51.384;7.122;2023-09-19T13:33:45;22.30;1.00
2639;DHT22;1329;51.384;7.122;2023-09-19T13:36:12;22.40;1.00
2639;DHT22;1329;51.384;7.122;2023-09-19T13:38:42;22.40;1.00
2639;DHT22;1329;51.384;7.122;2023-09-19T13:41:09;22.40;1.00
2639;DHT22;1329;51.384;7.122;2023-09-19T13:43:37;22.50;1.00
2639;DHT22;1329;51.384;7.122;2023-09-19T13:46:05;22.50;1.00
2639;DHT22;1329;51.384;7.122;2023-09-19T13:48:39;22.60;1.00
2639;DHT22;1329;51.384;7.122;2023-09-19T13:51:06;22.60;1.00
2639;DHT22;1329;51.384;7.122;2023-09-19T13:53:33;22.70;1.00
2639;DHT22;1329;51.384;7.122;2023-09-19T13:56:00;22.70;1.00
2639;DHT22;1329;51.384;7.122;2023-09-19T13:58:27;22.70;1.00
2639;DHT22;1329;51.384;7.122;2023-09-19T14:00:56;22.70;1.00
2639;DHT22;1329;51.384;7.122;2023-09-19T14:03:24;22.70;1.00
2639;DHT22;1329;51.384;7.122;2023-09-19T14:05:55;22.70;1.00
2639;DHT22;1329;51.384;7.122;2023-09-19T14:08:22;22.60;1.00
2639;DHT22;1329;51.384;7.122;2023-09-19T14:10:50;22.60;1.00
2639;DHT22;1329;51.384;7.122;2023-09-19T14:13:17;22.50;1.00
2639;DHT22;1329;51.384;7.122;2023-09-19T14:15:44;22.40;1.00
2639;DHT22;1329;51.384;7.122;2023-09-19T14:18:12;22.30;1.00
2639;DHT22;1329;51.384;7.122;2023-09-19T14:20:39;22.30;1.00
2639;DHT22;1329;51.384;7.122;2023-09-19T14:23:08;22.20;1.00
2639;DHT22;1329;51.384;7.122;2023-09-19T14:25:35;22.20;1.00
2639;DHT22;1329;51.384;7.122;2023-09-19T14:28:04;22.10;1.00
2639;DHT22;1329;51.384;7.122;2023-09-19T14:30:33;22.00;1.00
2639;DHT22;1329;51.384;7.122;2023-09-19T14:33:03;22.00;1.00
2639;DHT22;1329;51.384;7.122;2023-09-19T14:35:31;21.90;1.00
2639;DHT22;1329;51.384;7.122;2023-09-19T14:37:58;21.90;1.00
2639;DHT22;1329;51.384;7.122;2023-09-19T14:40:26;21.90;1.00
2639;DHT22;1329;51.384;7.122;2023-09-19T14:42:54;21.90;1.00
2639;DHT22;1329;51.384;7.122;2023-09-19T14:45:21;21.80;1.00
2639;DHT22;1329;51.384;7.122;2023-09-19T14:47:50;21.80;1.00
2639;DHT22;1329;51.384;7.122;2023-09-19T14:50:18;21.80;1.00
2639;DHT22;1329;51.384;7.122;2023-09-19T14:52:45;21.80;1.00
2639;DHT22;1329;51.384;7.122;2023-09-19T14:55:12;21.80;1.00
2639;DHT22;1329;51.384;7.122;2023-09-19T14:57:41;21.80;1.00
2639;DHT22;1329;51.384;7.122;2023-09-19T15:00:11;21.80;1.00
2639;DHT22;1329;51.384;7.122;2023-09-19T15:02:39;21.80;1.00
2639;DHT22;1329;51.384;7.122;2023-09-19T15:05:07;21.80;1.00
2639;DHT22;1329;51.384;7.122;2023-09-19T15:07:35;21.80;1.00
2639;DHT22;1329;51.384;7.122;2023-09-19T15:10:04;21.70;1.00
2639;DHT22;1329;51.384;7.122;2023-09-19T15:12:35;21.80;1.00
2639;DHT22;1329;51.384;7.122;2023-09-19T15:15:05;21.70;1.00
2639;DHT22;1329;51.384;7.122;2023-09-19T15:17:34;21.70;1.00
2639;DHT22;1329;51.384;7.122;2023-09-19T15:20:02;21.70;1.00
2639;DHT22;1329;51.384;7.122;2023-09-19T15:22:32;21.60;1.00
2639;DHT22;1329;51.384;7.122;2023-09-19T15:25:00;21.60;1.00
2639;DHT22;1329;51.384;7.122;2023-09-19T15:27:27;21.50;1.00
2639;DHT22;1329;51.384;7.122;2023-09-19T15:29:56;21.50;1.00
2639;DHT22;1329;51.384;7.122;2023-09-19T15:32:25;21.50;1.00
2639;DHT22;1329;51.384;7.122;2023-09-19T15:34:52;21.50;1.00
2639;DHT22;1329;51.384;7.122;2023-09-19T15:37:19;21.40;1.00
2639;DHT22;1329;51.384;7.122;2023-09-19T15:39:46;21.40;1.00
2639;DHT22;1329;51.384;7.122;2023-09-19T15:42:13;21.40;1.00
2639;DHT22;1329;51.384;7.122;2023-09-19T15:44:42;21.40;1.00
2639;DHT22;1329;51.384;7.122;2023-09-19T15:47:12;21.30;1.00
2639;DHT22;1329;51.384;7.122;2023-09-19T15:49:41;21.30;1.00
2639;DHT22;1329;51.384;7.122;2023-09-19T15:52:08;21.30;1.00
2639;DHT22;1329;51.384;7.122;2023-09-19T15:54:35;21.30;1.00
2639;DHT22;1329;51.384;7.122;2023-09-19T15:57:07;21.40;1.00
2639;DHT22;1329;51.384;7.122;2023-09-19T15:59:37;21.40;1.00
2639;DHT22;1329;51.384;7.122;2023-09-19T16:02:07;21.40;1.00
2639;DHT22;1329;51.384;7.122;2023-09-19T16:04:34;21.40;1.00
2639;DHT22;1329;51.384;7.122;2023-09-19T16:07:04;21.40;1.00
2639;DHT22;1329;51.384;7.122;2023-09-19T16:09:32;21.40;1.00
2639;DHT22;1329;51.384;7.122;2023-09-19T16:12:00;21.40;1.00
2639;DHT22;1329;51.384;7.122;2023-09-19T16:14:28;21.40;1.00
2639;DHT22;1329;51.384;7.122;2023-09-19T16:16:56;21.40;1.00
2639;DHT22;1329;51.384;7.122;2023-09-19T16:19:24;21.40;1.00
2639;DHT22;1329;51.384;7.122;2023-09-19T16:21:51;21.40;1.00
2639;DHT22;1329;51.384;7.122;2023-09-19T16:24:20;21.30;1.00
2639;DHT22;1329;51.384;7.122;2023-09-19T16:26:47;21.30;1.00
2639;DHT22;1329;51.384;7.122;2023-09-19T16:29:14;21.20;1.00
2639;DHT22;1329;51.384;7.122;2023-09-19T16:31:42;21.20;1.00
2639;DHT22;1329;51.384;7.122;2023-09-19T16:34:09;21.10;1.00
2639;DHT22;1329;51.384;7.122;2023-09-19T16:36:36;21.10;1.00
2639;DHT22;1329;51.384;7.122;2023-09-19T16:39:04;21.10;1.00
2639;DHT22;1329;51.384;7.122;2023-09-19T16:41:35;21.10;1.00
2639;DHT22;1329;51.384;7.122;2023-09-19T16:44:02;21.00;1.00
2639;DHT22;1329;51.384;7.122;2023-09-19T16:46:33;21.00;1.00
2639;DHT22;1329;51.384;7.122;2023-09-19T16:49:02;21.00;1.00
2639;DHT22;1329;51.384;7.122;2023-09-19T16:51:30;21.00;1.00